createdAt,value
2022-10-01T00:04:32.965Z,10.92
2022-10-01T00:09:35.067Z,10.91
2022-10-01T00:14:36.336Z,10.9
2022-10-01T00:19:37.944Z,10.88
2022-10-01T00:24:39.270Z,10.83
2022-10-01T00:29:41.174Z,10.8
2022-10-01T00:34:43.110Z,10.76
2022-10-01T00:39:44.705Z,10.68
2022-10-01T00:44:46.789Z,10.66
2022-10-01T00:49:58.721Z,10.6
2022-10-01T00:54:56.537Z,10.54
2022-10-01T00:59:58.170Z,10.54
2022-10-01T01:04:59.413Z,10.54
2022-10-01T01:10:01.282Z,10.49
2022-10-01T01:15:02.633Z,10.49
2022-10-01T01:20:03.782Z,10.51
2022-10-01T01:25:05.465Z,10.52
2022-10-01T01:30:06.930Z,10.54
2022-10-01T01:35:08.299Z,10.57
2022-10-01T01:40:09.458Z,10.54
2022-10-01T01:45:10.777Z,10.48
2022-10-01T01:50:12.615Z,10.43
2022-10-01T01:55:14.531Z,10.38
2022-10-01T02:00:16.689Z,10.3
2022-10-01T02:05:18.219Z,10.27
2022-10-01T02:10:20.000Z,10.22
2022-10-01T02:15:21.605Z,10.14
2022-10-01T02:20:23.629Z,10.1
2022-10-01T02:25:25.787Z,10.09
2022-10-01T02:30:27.951Z,10.01
2022-10-01T02:35:29.208Z,10.01
2022-10-01T02:40:30.608Z,9.97
2022-10-01T02:45:31.995Z,9.89
2022-10-01T02:50:33.211Z,9.84
2022-10-01T02:55:35.413Z,9.79
2022-10-01T03:00:36.727Z,9.7
2022-10-01T03:05:38.105Z,9.66
2022-10-01T03:10:42.404Z,9.62
2022-10-01T03:15:41.062Z,9.59
2022-10-01T03:20:42.330Z,9.52
2022-10-01T03:25:43.545Z,9.5
2022-10-01T03:30:45.257Z,9.42
2022-10-01T03:35:47.060Z,9.33
2022-10-01T03:40:48.359Z,9.28
2022-10-01T03:45:50.027Z,9.25
2022-10-01T03:50:52.093Z,9.14
2022-10-01T03:55:53.849Z,9.1
2022-10-01T04:00:55.740Z,9.06
2022-10-01T04:05:57.602Z,9.02
2022-10-01T04:10:59.438Z,8.97
2022-10-01T04:16:01.552Z,8.93
2022-10-01T04:21:03.365Z,8.87
2022-10-01T04:26:05.195Z,8.81
2022-10-01T04:31:07.046Z,8.76
2022-10-01T04:36:08.411Z,8.7
2022-10-01T04:41:10.004Z,8.62
2022-10-01T04:46:11.694Z,8.6
2022-10-01T04:51:13.850Z,8.55
2022-10-01T04:56:15.102Z,8.47
2022-10-01T05:01:16.833Z,8.47
2022-10-01T05:06:18.489Z,8.43
2022-10-01T05:11:19.677Z,8.39
2022-10-01T05:16:21.507Z,8.31
2022-10-01T05:21:22.882Z,8.3
2022-10-01T05:26:24.612Z,8.28
2022-10-01T05:31:25.946Z,8.32
2022-10-01T05:36:27.269Z,8.39
2022-10-01T05:41:28.814Z,8.46
2022-10-01T05:46:30.421Z,8.53
2022-10-01T05:51:31.955Z,8.68
2022-10-01T05:56:33.552Z,8.82
2022-10-01T06:01:35.495Z,8.72
2022-10-01T06:06:36.491Z,8.77
2022-10-01T06:11:38.068Z,8.85
2022-10-01T06:16:40.219Z,9.03
2022-10-01T06:21:41.312Z,9.21
2022-10-01T06:26:43.285Z,9.45
2022-10-01T06:31:44.629Z,9.68
2022-10-01T06:36:45.945Z,9.85
2022-10-01T06:41:48.062Z,10
2022-10-01T06:46:50.037Z,10.14
2022-10-01T06:51:51.943Z,10.29
2022-10-01T06:56:53.811Z,10.44
2022-10-01T07:01:56.551Z,10.63
2022-10-01T07:06:57.956Z,10.81
2022-10-01T07:11:59.190Z,10.96
2022-10-01T07:17:01.158Z,11.09
2022-10-01T07:22:03.205Z,11.17
2022-10-01T07:27:07.315Z,11.21
2022-10-01T07:32:06.067Z,11.24
2022-10-01T07:37:07.492Z,11.24
2022-10-01T08:07:18.755Z,11.68
2022-10-01T08:37:28.836Z,12.6
2022-10-01T08:47:32.699Z,12.7
2022-10-01T08:52:33.857Z,12.77
2022-10-01T08:57:35.946Z,12.82
2022-10-01T09:02:37.828Z,12.76
2022-10-01T09:07:39.020Z,12.72
2022-10-01T09:12:40.985Z,12.68
2022-10-01T09:17:42.268Z,12.72
2022-10-01T09:22:43.588Z,12.88
2022-10-01T09:27:45.396Z,13
2022-10-01T09:32:46.813Z,13.1
2022-10-01T09:37:48.668Z,13.21
2022-10-01T09:42:50.456Z,13.36
2022-10-01T09:47:52.162Z,13.44
2022-10-01T09:52:54.252Z,13.5
2022-10-01T09:57:55.693Z,13.57
2022-10-01T10:02:57.902Z,13.53
2022-10-01T10:07:58.932Z,13.53
2022-10-01T10:13:00.780Z,13.53
2022-10-01T10:18:02.828Z,13.53
2022-10-01T10:23:03.960Z,13.51
2022-10-01T10:28:05.332Z,13.55
2022-10-01T10:33:07.310Z,13.59
2022-10-01T10:38:09.136Z,13.52
2022-10-01T10:43:10.791Z,13.55
2022-10-01T10:48:12.840Z,13.59
2022-10-01T10:53:14.033Z,13.6
2022-10-01T10:58:16.119Z,13.64
2022-10-01T11:03:18.122Z,13.68
2022-10-01T11:08:19.663Z,13.63
2022-10-01T11:13:20.965Z,13.61
2022-10-01T11:18:22.823Z,13.61
2022-10-01T11:23:24.470Z,13.55
2022-10-01T11:28:25.913Z,13.39
2022-10-01T11:33:27.406Z,13.31
2022-10-01T11:38:28.646Z,13.22
2022-10-01T11:43:29.946Z,12.97
2022-10-01T11:48:31.916Z,12.82
2022-10-01T11:53:33.769Z,12.77
2022-10-01T11:58:35.698Z,12.7
2022-10-01T12:03:37.389Z,12.64
2022-10-01T12:08:39.204Z,12.58
2022-10-01T12:13:40.818Z,12.58
2022-10-01T12:18:42.868Z,12.49
2022-10-01T12:23:43.946Z,12.4
2022-10-01T12:28:49.195Z,12.3
2022-10-01T12:33:47.372Z,12.28
2022-10-01T12:38:49.477Z,12.16
2022-10-01T12:43:51.105Z,12.15
2022-10-01T12:48:52.854Z,12.08
2022-10-01T12:53:54.573Z,11.98
2022-10-01T12:58:56.216Z,11.91
2022-10-01T13:04:01.118Z,11.84
2022-10-01T13:08:59.813Z,11.68
2022-10-01T13:14:01.510Z,11.64
2022-10-01T13:19:03.503Z,11.52
2022-10-01T13:24:05.190Z,11.51
2022-10-01T13:29:06.496Z,11.53
2022-10-01T13:34:07.940Z,11.58
2022-10-01T13:39:09.229Z,11.67
2022-10-01T13:44:10.422Z,11.72
2022-10-01T13:49:11.971Z,11.83
2022-10-01T13:54:16.874Z,11.95
2022-10-01T13:59:16.066Z,11.95
2022-10-01T14:04:18.018Z,11.98
2022-10-01T14:09:20.036Z,12.08
2022-10-01T14:14:21.372Z,12.18
2022-10-01T14:19:22.978Z,12.23
2022-10-01T14:24:24.815Z,12.24
2022-10-01T14:29:26.126Z,12.21
2022-10-01T14:34:27.773Z,12.18
2022-10-01T14:39:29.654Z,12.22
2022-10-01T14:44:31.699Z,12.22
2022-10-01T14:49:33.375Z,12.22
2022-10-01T14:54:34.647Z,12.26
2022-10-01T14:59:36.095Z,12.28
2022-10-01T15:04:37.549Z,12.28
2022-10-01T15:09:39.436Z,12.22
2022-10-01T15:14:40.864Z,12.18
2022-10-01T15:19:42.574Z,12.18
2022-10-01T15:24:44.698Z,12.11
2022-10-01T15:29:46.623Z,12.15
2022-10-01T15:34:48.257Z,12.15
2022-10-01T15:39:49.731Z,12.09
2022-10-01T15:44:51.330Z,12
2022-10-01T15:49:53.302Z,12.07
2022-10-01T15:54:54.942Z,11.99
2022-10-01T15:59:56.798Z,11.98
2022-10-01T16:04:58.521Z,12.04
2022-10-01T16:10:00.157Z,12.06
2022-10-01T16:15:01.312Z,12.05
2022-10-01T16:20:02.645Z,12.1
2022-10-01T16:25:03.986Z,12.1
2022-10-01T16:30:06.005Z,12.05
2022-10-01T16:35:06.956Z,11.99
2022-10-01T16:40:10.740Z,12.05
2022-10-01T16:45:10.267Z,12.12
2022-10-01T16:50:11.998Z,12.06
2022-10-01T16:55:13.769Z,12.08
2022-10-01T17:00:15.136Z,12.16
2022-10-01T17:05:17.182Z,12.12
2022-10-01T17:10:19.057Z,12.18
2022-10-01T17:15:20.926Z,12.1
2022-10-01T17:20:22.285Z,12.08
2022-10-01T17:25:24.369Z,11.99
2022-10-01T17:30:25.570Z,11.97
2022-10-01T17:30:40.915Z,11.98
2022-10-01T17:35:43.093Z,12.01
2022-10-01T17:40:45.011Z,12.04
2022-10-01T17:45:46.274Z,12.11
2022-10-01T17:50:48.212Z,12.21
2022-10-01T17:55:49.851Z,12.22
2022-10-01T18:00:51.831Z,12.23
2022-10-01T18:05:53.738Z,12.28
2022-10-01T18:10:55.428Z,12.29
2022-10-01T18:15:56.746Z,12.31
2022-10-01T18:20:58.078Z,12.36
2022-10-01T18:26:00.088Z,12.43
2022-10-01T18:31:01.528Z,12.45
2022-10-01T18:36:03.478Z,12.5
2022-10-01T18:41:05.054Z,12.59
2022-10-01T18:46:06.751Z,12.59
2022-10-01T18:51:08.030Z,12.58
2022-10-01T18:56:09.772Z,12.63
2022-10-01T19:01:11.954Z,12.64
2022-10-01T19:06:13.620Z,12.6
2022-10-01T19:11:17.919Z,12.6
2022-10-01T19:16:17.542Z,12.63
2022-10-01T19:21:19.261Z,12.61
2022-10-01T19:26:20.716Z,12.63
2022-10-01T19:31:22.559Z,12.67
2022-10-01T19:36:24.438Z,12.64
2022-10-01T19:41:26.137Z,12.66
2022-10-01T19:46:27.660Z,12.67
2022-10-01T19:51:29.188Z,12.66
2022-10-01T19:56:31.042Z,12.59
2022-10-01T20:01:32.886Z,12.61
2022-10-01T20:06:35.010Z,12.65
2022-10-01T20:11:36.191Z,12.63
2022-10-01T20:16:38.253Z,12.6
2022-10-01T20:21:39.023Z,12.59
2022-10-01T20:26:40.391Z,12.5
2022-10-01T20:31:42.180Z,12.5
2022-10-01T20:36:43.911Z,12.53
2022-10-01T20:41:45.613Z,12.48
2022-10-01T20:46:47.007Z,12.45
2022-10-01T20:51:48.790Z,12.5
2022-10-01T20:56:50.871Z,12.55
2022-10-01T21:01:53.026Z,12.57
2022-10-01T21:06:54.598Z,12.61
2022-10-01T21:11:56.536Z,12.62
2022-10-01T21:16:58.064Z,12.59
2022-10-01T21:22:00.140Z,12.59
2022-10-01T21:27:01.730Z,12.56
2022-10-01T21:32:03.899Z,12.51
2022-10-01T21:37:05.657Z,12.51
2022-10-01T22:32:25.477Z,12.58
2022-10-01T22:37:27.509Z,12.6
2022-10-01T22:57:34.328Z,12.67
2022-10-01T23:07:37.682Z,12.67
2022-10-01T23:12:38.981Z,12.63
2022-10-01T23:17:40.678Z,12.64
2022-10-01T23:22:42.454Z,12.67
2022-10-01T23:27:44.778Z,12.68
2022-10-01T23:32:46.250Z,12.72
2022-10-01T23:37:47.799Z,12.76
2022-10-01T23:42:49.654Z,12.76
2022-10-01T23:47:51.059Z,12.77
2022-10-01T23:52:52.465Z,12.78
2022-10-01T23:57:54.027Z,12.81
